createdAt,value
2023-02-05T00:00:19.690Z,-0.25
2023-02-05T00:02:47.372Z,-0.16
2023-02-05T00:05:15.057Z,-0.25
2023-02-05T00:07:43.128Z,-0.27
2023-02-05T00:10:10.791Z,-0.34
2023-02-05T00:12:38.932Z,-0.28
2023-02-05T00:15:06.971Z,-0.26
2023-02-05T00:17:37.248Z,-0.32
2023-02-05T00:20:05.348Z,-0.35
2023-02-05T00:22:33.352Z,-0.32
2023-02-05T00:25:01.071Z,-0.26
2023-02-05T00:27:28.807Z,-0.30
2023-02-05T00:29:56.665Z,-0.31
2023-02-05T00:32:24.229Z,-0.28
2023-02-05T00:34:52.158Z,-0.30
2023-02-05T00:37:20.239Z,-0.27
2023-02-05T00:39:47.781Z,-0.16
2023-02-05T00:42:15.300Z,-0.12
2023-02-05T00:44:42.805Z,-0.31
2023-02-05T00:47:10.327Z,-0.37
2023-02-05T00:49:38.442Z,-0.25
2023-02-05T00:52:06.022Z,-0.33
2023-02-05T00:54:33.535Z,-0.28
2023-02-05T00:57:01.369Z,-0.27
2023-02-05T00:59:29.423Z,-0.28
2023-02-05T01:01:57.204Z,-0.31
2023-02-05T01:04:24.919Z,-0.38
2023-02-05T01:06:52.519Z,-0.39
2023-02-05T01:09:20.464Z,-0.33
2023-02-05T01:11:48.011Z,-0.21
2023-02-05T01:14:15.539Z,-0.10
2023-02-05T01:16:43.702Z,-0.10
2023-02-05T01:19:12.106Z,-0.10
2023-02-05T01:21:39.760Z,-0.15
2023-02-05T01:24:08.227Z,-0.08
2023-02-05T01:26:36.163Z,0.03
2023-02-05T01:29:04.533Z,0.04
2023-02-05T01:31:33.330Z,0.10
2023-02-05T01:34:01.759Z,0.13
2023-02-05T01:36:29.551Z,0.18
2023-02-05T01:38:57.008Z,0.14
2023-02-05T01:41:25.667Z,0.21
2023-02-05T01:44:10.321Z,0.22
2023-02-05T01:46:41.141Z,0.28
2023-02-05T01:49:14.676Z,0.25
2023-02-05T01:51:43.496Z,0.24
2023-02-05T01:54:11.477Z,0.20
2023-02-05T01:56:48.750Z,0.25
2023-02-05T01:59:25.687Z,0.22
2023-02-05T02:01:54.209Z,0.15
2023-02-05T02:04:42.480Z,0.15
2023-02-05T02:07:14.782Z,0.23
2023-02-05T02:09:45.434Z,0.31
2023-02-05T02:12:16.205Z,0.27
2023-02-05T02:14:48.065Z,0.28
2023-02-05T02:17:16.697Z,0.35
2023-02-05T02:20:03.388Z,0.41
2023-02-05T02:22:56.192Z,0.42
2023-02-05T02:25:59.088Z,0.33
2023-02-05T02:28:32.882Z,0.46
2023-02-05T02:31:12.642Z,0.44
2023-02-05T02:33:46.247Z,0.50
2023-02-05T02:36:21.183Z,0.34
2023-02-05T02:39:21.081Z,0.40
2023-02-05T02:42:02.441Z,0.42
2023-02-05T02:44:40.526Z,0.39
2023-02-05T02:47:34.995Z,0.46
2023-02-05T02:50:09.493Z,0.39
2023-02-05T02:52:41.231Z,0.32
2023-02-05T02:55:13.326Z,0.28
2023-02-05T02:57:49.061Z,0.38
2023-02-05T03:00:22.231Z,0.34
2023-02-05T03:02:54.491Z,0.32
2023-02-05T03:05:25.660Z,0.35
2023-02-05T03:07:59.575Z,0.42
2023-02-05T03:10:37.493Z,0.53
2023-02-05T03:13:11.288Z,0.58
2023-02-05T03:15:43.809Z,0.41
2023-02-05T03:18:13.933Z,0.40
2023-02-05T03:21:05.604Z,0.36
2023-02-05T03:23:33.228Z,0.37
2023-02-05T03:26:01.312Z,0.44
2023-02-05T03:28:38.804Z,0.37
2023-02-05T03:31:37.733Z,0.34
2023-02-05T03:34:20.792Z,0.38
2023-02-05T03:37:10.430Z,0.41
2023-02-05T03:40:02.051Z,0.47
2023-02-05T03:42:56.063Z,0.36
2023-02-05T03:45:48.271Z,0.38
2023-02-05T03:48:39.651Z,0.24
2023-02-05T03:51:28.305Z,0.23
2023-02-05T03:54:26.279Z,0.27
2023-02-05T03:57:09.942Z,0.28
2023-02-05T03:59:40.568Z,0.32
2023-02-05T04:02:08.732Z,0.32
2023-02-05T04:04:40.857Z,0.13
2023-02-05T04:07:10.882Z,0.17
2023-02-05T04:09:39.568Z,0.18
2023-02-05T04:12:10.873Z,0.07
2023-02-05T04:14:40.060Z,0.06
2023-02-05T04:17:12.380Z,-0.02
2023-02-05T04:19:41.667Z,-0.07
2023-02-05T04:22:11.101Z,-0.05
2023-02-05T04:24:43.722Z,-0.02
2023-02-05T04:27:11.382Z,0.02
2023-02-05T04:29:39.414Z,-0.01
2023-02-05T04:32:07.397Z,-0.03
2023-02-05T04:34:35.918Z,0.00
2023-02-05T04:37:05.149Z,0.01
2023-02-05T04:39:32.798Z,0.07
2023-02-05T04:42:01.938Z,0.08
2023-02-05T04:44:29.759Z,0.10
2023-02-05T04:46:57.421Z,0.16
2023-02-05T04:49:25.401Z,0.17
2023-02-05T04:51:52.913Z,0.20
2023-02-05T04:54:20.774Z,0.20
2023-02-05T04:56:48.356Z,0.27
2023-02-05T04:59:15.879Z,0.19
2023-02-05T05:01:43.357Z,0.26
2023-02-05T05:04:11.023Z,0.26
2023-02-05T05:06:39.565Z,0.22
2023-02-05T05:09:07.135Z,0.18
2023-02-05T05:11:39.521Z,0.20
2023-02-05T05:14:07.398Z,0.04
2023-02-05T05:16:35.009Z,0.05
2023-02-05T05:19:02.626Z,0.14
2023-02-05T05:21:30.326Z,0.17
2023-02-05T05:23:57.883Z,0.13
2023-02-05T05:26:25.519Z,0.09
2023-02-05T05:28:54.929Z,-0.16
2023-02-05T05:31:23.711Z,-0.17
2023-02-05T05:33:51.607Z,-0.11
2023-02-05T05:36:19.308Z,-0.08
2023-02-05T05:38:47.037Z,-0.22
2023-02-05T05:41:43.562Z,-0.23
2023-02-05T05:44:11.257Z,-0.31
2023-02-05T05:46:41.368Z,-0.29
2023-02-05T05:49:09.067Z,-0.17
2023-02-05T05:51:36.742Z,-0.21
2023-02-05T05:54:04.364Z,-0.23
2023-02-05T05:56:32.104Z,-0.20
2023-02-05T05:58:59.642Z,-0.09
2023-02-05T06:01:27.899Z,-0.05
2023-02-05T06:03:55.497Z,-0.09
2023-02-05T06:06:23.037Z,-0.17
2023-02-05T06:08:50.584Z,-0.19
2023-02-05T06:11:18.092Z,-0.16
2023-02-05T06:13:45.760Z,-0.20
2023-02-05T06:16:13.785Z,-0.11
2023-02-05T06:18:41.322Z,-0.10
2023-02-05T06:21:10.820Z,-0.16
2023-02-05T06:23:39.289Z,-0.16
2023-02-05T06:26:06.935Z,-0.11
2023-02-05T06:28:34.572Z,-0.09
2023-02-05T06:31:02.142Z,-0.01
2023-02-05T06:33:30.017Z,-0.01
2023-02-05T06:35:57.785Z,-0.03
2023-02-05T06:38:25.442Z,0.01
2023-02-05T06:40:53.077Z,-0.01
2023-02-05T06:43:20.649Z,0.10
2023-02-05T06:45:48.629Z,0.18
2023-02-05T06:48:16.264Z,0.23
2023-02-05T06:50:43.797Z,0.33
2023-02-05T06:53:11.970Z,0.21
2023-02-05T06:55:40.085Z,0.22
2023-02-05T06:58:08.006Z,0.20
2023-02-05T07:00:36.209Z,0.31
2023-02-05T07:03:04.315Z,0.31
2023-02-05T07:05:35.150Z,0.31
2023-02-05T07:08:04.272Z,0.29
2023-02-05T07:10:31.938Z,0.18
2023-02-05T07:12:59.496Z,0.19
2023-02-05T07:15:27.545Z,0.21
2023-02-05T07:17:55.465Z,0.17
2023-02-05T07:20:23.495Z,0.26
2023-02-05T07:22:51.036Z,0.17
2023-02-05T07:25:18.642Z,0.11
2023-02-05T07:27:46.548Z,0.12
2023-02-05T07:30:14.727Z,0.09
2023-02-05T07:32:42.681Z,0.03
2023-02-05T07:35:10.224Z,0.05
2023-02-05T07:37:39.566Z,0.10
2023-02-05T07:40:07.913Z,0.01
2023-02-05T07:42:35.748Z,-0.07
2023-02-05T07:45:04.946Z,-0.11
2023-02-05T07:47:32.742Z,-0.08
2023-02-05T07:50:00.270Z,-0.16
2023-02-05T07:52:27.969Z,-0.09
2023-02-05T07:54:55.717Z,-0.03
2023-02-05T07:57:23.623Z,-0.01
2023-02-05T07:59:51.140Z,0.05
2023-02-05T08:02:18.674Z,0.02
2023-02-05T08:04:46.267Z,0.01
2023-02-05T08:07:14.526Z,0.04
2023-02-05T08:09:42.194Z,0.16
2023-02-05T08:12:09.818Z,0.10
2023-02-05T08:14:37.430Z,0.06
2023-02-05T08:17:06.294Z,0.21
2023-02-05T08:19:34.043Z,0.21
2023-02-05T08:22:01.606Z,0.19
2023-02-05T08:24:29.328Z,0.15
2023-02-05T08:26:57.107Z,0.10
2023-02-05T08:29:24.646Z,0.14
2023-02-05T08:31:52.259Z,0.18
2023-02-05T08:34:20.873Z,0.30
2023-02-05T08:36:48.643Z,0.30
2023-02-05T08:39:16.460Z,0.31
2023-02-05T08:41:44.261Z,0.32
2023-02-05T08:44:11.785Z,0.32
2023-02-05T08:46:49.397Z,0.13
2023-02-05T08:49:18.507Z,-0.05
2023-02-05T08:51:46.765Z,0.17
2023-02-05T08:54:15.336Z,0.18
2023-02-05T08:56:45.193Z,0.02
2023-02-05T08:59:13.113Z,0.06
2023-02-05T09:01:43.085Z,0.25
2023-02-05T09:04:16.891Z,0.18
2023-02-05T09:06:45.008Z,0.20
2023-02-05T09:09:14.229Z,0.31
2023-02-05T09:11:42.409Z,0.24
2023-02-05T09:14:10.277Z,0.15
2023-02-05T09:16:38.489Z,0.05
2023-02-05T09:19:06.529Z,0.08
2023-02-05T09:21:35.567Z,0.13
2023-02-05T09:24:04.204Z,0.24
2023-02-05T09:26:32.029Z,0.21
2023-02-05T09:28:59.617Z,0.35
2023-02-05T09:31:27.508Z,0.29
2023-02-05T09:33:55.925Z,0.12
2023-02-05T09:36:24.058Z,0.12
2023-02-05T09:39:02.021Z,0.16
2023-02-05T09:41:42.908Z,0.17
2023-02-05T09:44:48.958Z,0.14
2023-02-05T09:47:35.650Z,0.31
2023-02-05T09:50:15.459Z,0.43
2023-02-05T09:52:49.778Z,0.48
2023-02-05T09:55:29.989Z,0.60
2023-02-05T09:58:06.684Z,0.58
2023-02-05T10:00:42.250Z,0.53
2023-02-05T10:03:30.328Z,0.59
2023-02-05T10:06:03.754Z,0.50
2023-02-05T10:08:40.975Z,0.72
2023-02-05T10:11:20.330Z,0.76
2023-02-05T10:14:03.232Z,0.85
2023-02-05T10:16:47.391Z,0.85
2023-02-05T10:19:18.023Z,0.74
2023-02-05T10:21:55.003Z,0.39
2023-02-05T10:24:54.672Z,0.36
2023-02-05T10:27:41.697Z,0.53
2023-02-05T10:30:24.238Z,0.40
2023-02-05T10:32:59.865Z,0.24
2023-02-05T10:35:51.455Z,0.18
2023-02-05T10:38:24.758Z,-0.19
2023-02-05T10:41:00.243Z,-0.27
2023-02-05T10:43:34.261Z,-0.28
2023-02-05T10:46:02.728Z,-0.38
2023-02-05T10:48:56.647Z,-0.34
2023-02-05T10:51:45.360Z,-0.44
2023-02-05T10:54:16.353Z,-0.36
2023-02-05T10:56:44.598Z,-0.39
2023-02-05T10:59:27.021Z,-0.34
2023-02-05T11:02:03.971Z,-0.25
2023-02-05T11:04:39.000Z,-0.35
2023-02-05T11:07:24.700Z,-0.34
2023-02-05T11:09:53.361Z,-0.36
2023-02-05T11:12:30.074Z,-0.50
2023-02-05T11:15:00.452Z,-0.39
2023-02-05T11:17:35.136Z,-0.47
2023-02-05T11:20:28.485Z,-0.41
2023-02-05T11:23:18.084Z,-0.28
2023-02-05T11:25:57.149Z,-0.38
2023-02-05T11:28:33.036Z,-0.22
2023-02-05T11:31:25.571Z,-0.14
2023-02-05T11:34:14.377Z,-0.23
2023-02-05T11:36:53.778Z,-0.24
2023-02-05T11:39:36.440Z,-0.20
2023-02-05T11:42:09.627Z,-0.03
2023-02-05T11:44:48.492Z,0.07
2023-02-05T11:47:27.579Z,0.23
2023-02-05T11:49:56.618Z,0.19
2023-02-05T11:52:37.495Z,0.13
2023-02-05T11:55:06.883Z,-0.04
2023-02-05T11:57:39.135Z,-0.10
2023-02-05T12:00:09.936Z,0.08
2023-02-05T12:02:42.677Z,0.18
2023-02-05T12:05:20.044Z,0.18
2023-02-05T12:08:26.896Z,0.27
2023-02-05T12:11:52.741Z,0.25
2023-02-05T12:14:38.280Z,0.28
2023-02-05T12:17:17.477Z,0.40
2023-02-05T12:19:57.155Z,0.22
2023-02-05T12:22:30.405Z,-0.04
2023-02-05T12:25:46.246Z,-0.14
2023-02-05T12:28:26.437Z,-0.18
2023-02-05T12:31:24.500Z,-0.22
2023-02-05T12:34:24.385Z,-0.26
2023-02-05T12:37:07.015Z,-0.11
2023-02-05T12:39:46.484Z,0.09
2023-02-05T12:42:13.975Z,0.20
2023-02-05T12:44:53.613Z,0.23
2023-02-05T12:47:31.477Z,0.12
2023-02-05T12:50:08.057Z,0.17
2023-02-05T12:52:51.567Z,0.18
2023-02-05T12:56:03.925Z,-0.01
2023-02-05T12:58:42.583Z,-0.01
2023-02-05T13:01:50.177Z,0.04
2023-02-05T13:04:37.944Z,-0.02
2023-02-05T13:07:29.435Z,0.06
2023-02-05T13:10:06.846Z,-0.06
2023-02-05T13:12:41.842Z,-0.01
2023-02-05T13:15:12.356Z,-0.01
2023-02-05T13:17:49.808Z,0.01
2023-02-05T13:20:44.493Z,-0.09
2023-02-05T13:23:33.506Z,-0.18
2023-02-05T13:26:22.288Z,-0.23
2023-02-05T13:28:55.754Z,-0.24
2023-02-05T13:31:43.571Z,-0.32
2023-02-05T13:34:15.409Z,-0.34
2023-02-05T13:37:20.429Z,-0.28
2023-02-05T13:40:14.377Z,-0.13
2023-02-05T13:42:56.651Z,-0.10
2023-02-05T13:45:52.605Z,-0.16
2023-02-05T13:48:41.967Z,-0.11
2023-02-05T13:51:28.256Z,-0.11
2023-02-05T13:54:31.053Z,-0.03
2023-02-05T13:57:36.466Z,-0.06
2023-02-05T14:00:09.074Z,-0.05
2023-02-05T14:02:48.965Z,-0.15
2023-02-05T14:05:32.459Z,-0.18
2023-02-05T14:08:03.314Z,-0.17
2023-02-05T14:10:39.343Z,-0.19
2023-02-05T14:13:28.612Z,-0.27
2023-02-05T14:16:00.488Z,-0.26
2023-02-05T14:18:40.590Z,-0.27
2023-02-05T14:21:34.619Z,-0.27
2023-02-05T14:24:23.087Z,-0.27
2023-02-05T14:26:53.179Z,-0.31
2023-02-05T14:29:44.894Z,-0.44
2023-02-05T14:32:34.138Z,-0.49
2023-02-05T14:35:25.179Z,-0.43
2023-02-05T14:37:56.997Z,-0.49
2023-02-05T14:40:37.308Z,-0.55
2023-02-05T14:43:16.915Z,-0.68
2023-02-05T14:45:50.205Z,-0.66
2023-02-05T14:48:28.554Z,-0.64
2023-02-05T14:51:19.029Z,-0.68
2023-02-05T14:53:56.283Z,-0.81
2023-02-05T14:57:04.911Z,-0.54
2023-02-05T14:59:43.865Z,-0.58
2023-02-05T15:02:55.762Z,-0.59
2023-02-05T15:05:51.107Z,-0.61
2023-02-05T15:08:27.912Z,-0.51
2023-02-05T15:11:37.698Z,-0.56
2023-02-05T15:14:24.680Z,-0.52
2023-02-05T15:17:07.857Z,-0.58
2023-02-05T15:19:52.659Z,-0.63
2023-02-05T15:22:35.233Z,-0.61
2023-02-05T15:25:10.099Z,-0.61
2023-02-05T15:27:45.439Z,-0.63
2023-02-05T15:30:26.508Z,-0.68
2023-02-05T15:33:05.809Z,-0.66
2023-02-05T15:35:34.634Z,-0.63
2023-02-05T15:38:20.094Z,-0.66
2023-02-05T15:40:47.955Z,-0.70
2023-02-05T15:43:19.138Z,-0.76
2023-02-05T15:45:47.368Z,-0.85
2023-02-05T15:48:19.112Z,-0.71
2023-02-05T15:50:54.947Z,-0.70
2023-02-05T15:53:43.251Z,-0.68
2023-02-05T15:56:20.084Z,-0.82
2023-02-05T15:58:55.049Z,-0.77
2023-02-05T16:01:48.000Z,-0.74
2023-02-05T16:04:20.081Z,-0.77
2023-02-05T16:06:48.811Z,-0.84
2023-02-05T16:09:22.233Z,-0.84
2023-02-05T16:11:53.144Z,-0.88
2023-02-05T16:14:33.290Z,-0.90
2023-02-05T16:17:29.355Z,-0.96
2023-02-05T16:20:13.903Z,-1.00
2023-02-05T16:22:52.798Z,-0.86
2023-02-05T16:25:47.842Z,-0.81
2023-02-05T16:28:21.263Z,-1.01
2023-02-05T16:30:53.367Z,-0.87
2023-02-05T16:33:24.069Z,-0.86
2023-02-05T16:35:52.579Z,-0.94
2023-02-05T16:38:23.413Z,-0.94
2023-02-05T16:40:55.067Z,-0.90
2023-02-05T16:43:31.623Z,-0.92
2023-02-05T16:46:08.327Z,-0.86
2023-02-05T16:48:51.054Z,-0.89
2023-02-05T16:51:45.944Z,-1.05
2023-02-05T16:54:13.520Z,-1.06
2023-02-05T16:56:56.353Z,-1.16
2023-02-05T16:59:28.414Z,-1.14
2023-02-05T17:01:56.567Z,-1.03
2023-02-05T17:04:29.810Z,-1.05
2023-02-05T17:07:00.404Z,-1.16
2023-02-05T17:09:33.391Z,-1.16
2023-02-05T17:12:20.241Z,-1.21
2023-02-05T17:14:55.620Z,-1.18
2023-02-05T17:17:25.892Z,-1.07
2023-02-05T17:20:05.180Z,-1.14
2023-02-05T17:22:34.788Z,-1.04
2023-02-05T17:25:02.385Z,-1.07
2023-02-05T17:27:33.167Z,-1.01
2023-02-05T17:30:01.053Z,-1.00
2023-02-05T17:32:30.067Z,-1.11
2023-02-05T17:34:59.964Z,-1.23
2023-02-05T17:37:27.554Z,-1.19
2023-02-05T17:39:56.810Z,-1.18
2023-02-05T17:42:25.940Z,-1.12
2023-02-05T17:44:53.999Z,-1.05
2023-02-05T17:47:21.600Z,-1.18
2023-02-05T17:49:49.323Z,-1.20
2023-02-05T17:52:18.778Z,-1.13
2023-02-05T17:54:49.922Z,-1.15
2023-02-05T17:57:22.538Z,-1.29
2023-02-05T17:59:53.378Z,-1.23
2023-02-05T18:02:21.473Z,-1.21
2023-02-05T18:04:50.370Z,-1.22
2023-02-05T18:07:35.201Z,-1.25
2023-02-05T18:10:06.138Z,-1.22
2023-02-05T18:12:34.198Z,-1.19
2023-02-05T18:15:01.850Z,-1.27
2023-02-05T18:17:29.905Z,-1.22
2023-02-05T18:19:57.529Z,-1.21
2023-02-05T18:22:25.177Z,-1.26
2023-02-05T18:24:55.830Z,-1.21
2023-02-05T18:27:23.998Z,-1.19
2023-02-05T18:29:51.766Z,-1.17
2023-02-05T18:32:19.395Z,-1.11
2023-02-05T18:34:47.160Z,-1.18
2023-02-05T18:37:16.704Z,-1.19
2023-02-05T18:39:45.762Z,-1.25
2023-02-05T18:42:14.369Z,-1.18
2023-02-05T18:44:42.207Z,-1.15
2023-02-05T18:47:11.432Z,-1.16
2023-02-05T18:49:39.162Z,-1.18
2023-02-05T18:52:07.315Z,-1.20
2023-02-05T18:54:35.414Z,-1.21
2023-02-05T18:57:03.220Z,-1.23
2023-02-05T18:59:31.307Z,-1.18
2023-02-05T19:01:58.911Z,-1.14
2023-02-05T19:04:28.005Z,-1.09
2023-02-05T19:06:55.690Z,-1.13
2023-02-05T19:09:24.890Z,-1.18
2023-02-05T19:11:55.392Z,-1.15
2023-02-05T19:14:25.067Z,-1.14
2023-02-05T19:16:54.627Z,-1.27
2023-02-05T19:19:24.743Z,-1.20
2023-02-05T19:22:00.064Z,-1.21
2023-02-05T19:24:29.039Z,-1.21
2023-02-05T19:26:59.051Z,-1.32
2023-02-05T19:29:27.570Z,-1.26
2023-02-05T19:31:58.610Z,-1.14
2023-02-05T19:34:27.841Z,-1.15
2023-02-05T19:36:58.511Z,-1.09
2023-02-05T19:39:26.291Z,-1.20
2023-02-05T19:41:54.130Z,-1.15
2023-02-05T19:44:22.426Z,-1.21
2023-02-05T19:46:51.136Z,-1.21
2023-02-05T19:49:21.807Z,-1.16
2023-02-05T19:51:54.131Z,-1.14
2023-02-05T19:54:23.004Z,-1.11
2023-02-05T19:56:51.424Z,-1.08
2023-02-05T19:59:19.732Z,-1.01
2023-02-05T20:01:47.732Z,-1.03
2023-02-05T20:04:22.356Z,-1.10
2023-02-05T20:06:52.220Z,-1.08
2023-02-05T20:09:20.221Z,-1.08
2023-02-05T20:11:49.920Z,-1.07
2023-02-05T20:14:17.807Z,-1.08
2023-02-05T20:16:45.946Z,-1.15
2023-02-05T20:19:17.415Z,-1.25
2023-02-05T20:21:46.762Z,-1.17
2023-02-05T20:24:16.349Z,-1.16
2023-02-05T20:26:47.867Z,-1.20
2023-02-05T20:29:34.742Z,-1.13
2023-02-05T20:32:02.654Z,-1.16
2023-02-05T20:34:31.233Z,-1.07
2023-02-05T20:37:02.368Z,-1.13
2023-02-05T20:39:31.091Z,-1.13
2023-02-05T20:41:59.739Z,-1.18
2023-02-05T20:44:31.041Z,-1.07
2023-02-05T20:46:58.761Z,-1.12
2023-02-05T20:49:26.565Z,-1.09
2023-02-05T20:51:54.694Z,-1.11
2023-02-05T20:54:24.469Z,-1.14
2023-02-05T20:56:56.899Z,-1.12
2023-02-05T20:59:26.573Z,-1.17
2023-02-05T21:01:54.143Z,-1.13
2023-02-05T21:04:22.116Z,-1.11
2023-02-05T21:06:49.734Z,-1.15
2023-02-05T21:09:17.384Z,-1.19
2023-02-05T21:11:45.294Z,-1.19
2023-02-05T21:14:17.283Z,-1.24
2023-02-05T21:16:45.247Z,-1.25
2023-02-05T21:19:13.580Z,-1.26
2023-02-05T21:21:41.650Z,-1.33
2023-02-05T21:24:12.910Z,-1.37
2023-02-05T21:26:43.082Z,-1.31
2023-02-05T21:29:14.385Z,-1.28
2023-02-05T21:31:49.200Z,-1.24
2023-02-05T21:34:21.900Z,-1.29
2023-02-05T21:36:50.383Z,-1.23
2023-02-05T21:39:21.679Z,-1.34
2023-02-05T21:41:53.415Z,-1.35
2023-02-05T21:44:21.678Z,-1.33
2023-02-05T21:46:49.672Z,-1.28
2023-02-05T21:49:17.308Z,-1.36
2023-02-05T21:51:44.848Z,-1.32
2023-02-05T21:54:12.408Z,-1.33
2023-02-05T21:56:42.240Z,-1.33
2023-02-05T21:59:11.757Z,-1.30
2023-02-05T22:01:40.169Z,-1.31
2023-02-05T22:04:12.383Z,-1.31
2023-02-05T22:06:40.964Z,-1.27
2023-02-05T22:09:14.284Z,-1.25
2023-02-05T22:11:43.528Z,-1.25
2023-02-05T22:14:11.583Z,-1.27
2023-02-05T22:16:39.393Z,-1.28
2023-02-05T22:19:07.937Z,-1.28
2023-02-05T22:21:41.280Z,-1.24
2023-02-05T22:24:14.166Z,-1.21
2023-02-05T22:26:42.239Z,-1.25
2023-02-05T22:29:21.050Z,-1.26
2023-02-05T22:31:54.138Z,-1.35
2023-02-05T22:34:21.969Z,-1.30
2023-02-05T22:36:49.893Z,-1.30
2023-02-05T22:39:17.470Z,-1.39
2023-02-05T22:41:45.359Z,-1.29
2023-02-05T22:44:13.048Z,-1.31
2023-02-05T22:46:43.604Z,-1.46
2023-02-05T22:49:15.324Z,-1.42
2023-02-05T22:51:44.058Z,-1.37
2023-02-05T22:54:13.442Z,-1.39
2023-02-05T22:56:42.061Z,-1.45
2023-02-05T22:59:09.669Z,-1.46
2023-02-05T23:01:39.200Z,-1.45
2023-02-05T23:04:08.909Z,-1.45
2023-02-05T23:06:39.781Z,-1.49
2023-02-05T23:09:16.520Z,-1.46
2023-02-05T23:11:45.344Z,-1.49
2023-02-05T23:14:17.349Z,-1.50
2023-02-05T23:16:47.131Z,-1.55
2023-02-05T23:19:19.035Z,-1.58
2023-02-05T23:21:47.409Z,-1.66
2023-02-05T23:24:15.977Z,-1.69
2023-02-05T23:26:46.624Z,-1.67
2023-02-05T23:29:16.020Z,-1.67
2023-02-05T23:31:43.760Z,-1.60
2023-02-05T23:34:11.515Z,-1.60
2023-02-05T23:36:39.627Z,-1.62
2023-02-05T23:39:07.146Z,-1.82
2023-02-05T23:41:39.848Z,-1.77
2023-02-05T23:44:17.816Z,-1.75
2023-02-05T23:46:47.652Z,-1.81
2023-02-05T23:49:17.049Z,-1.80
2023-02-05T23:51:44.533Z,-1.85
2023-02-05T23:54:12.550Z,-1.77
2023-02-05T23:56:41.805Z,-1.79
2023-02-05T23:59:11.198Z,-1.90
